createdAt,value
2023-05-14T00:01:46.456Z,9.35
2023-05-14T00:04:12.963Z,9.68
2023-05-14T00:06:39.419Z,10.00
2023-05-14T00:09:06.152Z,10.00
2023-05-14T00:11:32.647Z,9.93
2023-05-14T00:13:59.137Z,9.52
2023-05-14T00:16:25.708Z,9.10
2023-05-14T00:18:52.317Z,9.95
2023-05-14T00:21:18.795Z,10.20
2023-05-14T00:23:45.213Z,9.23
2023-05-14T00:26:11.673Z,10.00
2023-05-14T00:28:38.744Z,9.18
2023-05-14T00:31:05.351Z,9.95
2023-05-14T00:33:32.563Z,10.02
2023-05-14T00:35:59.479Z,10.05
2023-05-14T00:38:28.405Z,9.85
2023-05-14T00:45:54.047Z,8.45
2023-05-14T00:48:21.643Z,8.65
2023-05-14T00:50:49.790Z,8.93
2023-05-14T00:53:16.915Z,8.70
2023-05-14T00:55:43.544Z,8.70
2023-05-14T00:58:12.539Z,9.18
2023-05-14T01:00:40.850Z,9.52
2023-05-14T01:03:08.237Z,9.10
2023-05-14T01:06:07.010Z,9.23
2023-05-14T01:08:58.536Z,8.77
2023-05-14T01:11:47.838Z,8.75
2023-05-14T01:14:22.094Z,9.43
2023-05-14T01:16:52.509Z,8.82
2023-05-14T01:19:46.665Z,8.95
2023-05-14T01:22:13.787Z,9.27
2023-05-14T01:24:40.917Z,9.63
2023-05-14T01:27:17.292Z,9.32
2023-05-14T01:29:53.230Z,9.43
2023-05-14T01:32:21.620Z,8.85
2023-05-14T01:34:50.819Z,8.90
2023-05-14T01:37:17.943Z,9.88
2023-05-14T01:39:45.782Z,9.20
2023-05-14T01:42:13.130Z,8.75
2023-05-14T01:44:39.733Z,9.35
2023-05-14T01:47:06.324Z,8.90
2023-05-14T01:49:32.882Z,8.57
2023-05-14T01:51:59.313Z,8.68
2023-05-14T01:54:25.865Z,8.60
2023-05-14T01:56:52.264Z,10.00
2023-05-14T01:59:18.707Z,9.23
2023-05-14T02:01:45.234Z,9.90
2023-05-14T02:04:11.778Z,8.77
2023-05-14T02:06:41.345Z,9.48
2023-05-14T02:09:07.868Z,9.82
2023-05-14T02:11:34.342Z,9.02
2023-05-14T02:14:00.760Z,8.63
2023-05-14T02:16:27.453Z,9.13
2023-05-14T02:18:53.991Z,9.10
2023-05-14T02:21:20.617Z,9.15
2023-05-14T02:23:49.336Z,9.43
2023-05-14T02:26:16.446Z,9.77
2023-05-14T02:28:43.778Z,9.05
2023-05-14T02:36:05.930Z,8.75
2023-05-14T02:38:32.415Z,8.90
2023-05-14T02:40:58.944Z,8.35
2023-05-14T02:43:25.398Z,9.13
2023-05-14T02:45:51.913Z,8.85
2023-05-14T02:48:18.735Z,9.60
2023-05-14T02:50:45.864Z,9.20
2023-05-14T02:53:12.451Z,9.10
2023-05-14T02:55:38.850Z,9.32
2023-05-14T02:58:05.232Z,8.85
2023-05-14T03:00:31.745Z,8.70
2023-05-14T03:02:58.639Z,9.50
2023-05-14T03:05:25.654Z,8.50
2023-05-14T03:07:53.494Z,9.70
2023-05-14T03:10:20.506Z,10.02
2023-05-14T03:12:47.519Z,8.55
2023-05-14T03:15:14.006Z,8.63
2023-05-14T03:17:40.543Z,9.43
2023-05-14T03:20:07.469Z,10.43
2023-05-14T03:22:35.661Z,8.88
2023-05-14T03:25:02.091Z,8.90
2023-05-14T03:27:28.539Z,9.50
2023-05-14T03:29:55.157Z,8.90
2023-05-14T03:32:21.635Z,9.68
2023-05-14T03:34:48.141Z,9.43
2023-05-14T03:37:14.620Z,9.05
2023-05-14T03:39:41.078Z,10.10
2023-05-14T03:42:07.641Z,9.30
2023-05-14T03:44:34.209Z,9.32
2023-05-14T03:47:00.608Z,10.07
2023-05-14T03:49:27.584Z,9.30
2023-05-14T03:51:55.160Z,8.80
2023-05-14T03:54:21.730Z,9.40
2023-05-14T03:56:48.175Z,8.52
2023-05-14T03:59:14.674Z,8.93
2023-05-14T04:01:41.102Z,9.18
2023-05-14T04:04:07.818Z,9.45
2023-05-14T04:06:34.690Z,8.85
2023-05-14T04:09:02.118Z,9.63
2023-05-14T04:11:28.730Z,9.18
2023-05-14T04:13:55.519Z,8.55
2023-05-14T04:16:22.453Z,8.35
2023-05-14T04:18:49.145Z,8.60
2023-05-14T04:21:15.735Z,8.57
2023-05-14T04:23:42.155Z,8.45
2023-05-14T04:26:08.666Z,9.50
2023-05-14T04:28:35.199Z,8.20
2023-05-14T04:31:01.714Z,8.25
2023-05-14T04:33:28.206Z,9.40
2023-05-14T04:35:54.672Z,8.80
2023-05-14T04:38:21.232Z,8.23
2023-05-14T04:40:47.689Z,8.05
2023-05-14T04:43:14.158Z,7.78
2023-05-14T04:45:41.176Z,8.00
2023-05-14T04:48:07.893Z,7.90
2023-05-14T04:50:35.096Z,7.32
2023-05-14T04:53:01.684Z,7.05
2023-05-14T04:55:28.248Z,7.18
2023-05-14T04:57:54.869Z,7.75
2023-05-14T05:00:22.207Z,6.90
2023-05-14T05:02:49.029Z,6.88
2023-05-14T05:05:15.564Z,8.23
2023-05-14T05:07:42.012Z,7.30
2023-05-14T05:10:08.902Z,7.25
2023-05-14T05:15:02.128Z,7.72
2023-05-14T05:17:29.568Z,7.15
2023-05-14T05:19:56.253Z,7.07
2023-05-14T05:22:23.742Z,7.35
2023-05-14T05:24:50.307Z,7.10
2023-05-14T05:27:16.929Z,7.22
2023-05-14T05:29:44.522Z,6.60
2023-05-14T05:32:10.972Z,6.85
2023-05-14T05:34:37.478Z,6.28
2023-05-14T05:37:05.855Z,7.43
2023-05-14T05:39:35.986Z,6.63
2023-05-14T05:42:02.765Z,6.45
2023-05-14T05:44:29.357Z,7.30
2023-05-14T05:46:57.228Z,6.88
2023-05-14T05:49:23.950Z,7.18
2023-05-14T05:51:50.541Z,6.63
2023-05-14T05:54:17.118Z,7.10
2023-05-14T05:56:43.710Z,6.60
2023-05-14T05:59:10.247Z,6.30
2023-05-14T06:01:37.113Z,6.95
2023-05-14T06:04:06.162Z,6.57
2023-05-14T06:06:32.990Z,7.13
2023-05-14T06:08:59.605Z,6.47
2023-05-14T06:11:26.720Z,6.18
2023-05-14T06:13:53.814Z,6.70
2023-05-14T06:16:20.903Z,6.43
2023-05-14T06:18:47.624Z,6.45
2023-05-14T06:21:14.192Z,6.05
2023-05-14T06:23:41.213Z,6.65
2023-05-14T06:26:07.619Z,6.40
2023-05-14T06:28:34.146Z,6.68
2023-05-14T06:31:00.678Z,6.20
2023-05-14T06:33:30.803Z,5.95
2023-05-14T06:36:03.492Z,6.30
2023-05-14T06:38:29.907Z,6.47
2023-05-14T06:40:56.381Z,5.68
2023-05-14T06:43:22.802Z,5.55
2023-05-14T06:45:50.130Z,6.00
2023-05-14T06:48:18.878Z,6.25
2023-05-14T06:50:46.429Z,5.80
2023-05-14T06:53:12.989Z,5.47
2023-05-14T06:55:39.736Z,5.95
2023-05-14T06:58:07.290Z,6.30
2023-05-14T07:00:33.789Z,5.97
2023-05-14T07:03:00.349Z,5.65
2023-05-14T07:05:26.839Z,5.80
2023-05-14T07:07:53.359Z,5.35
2023-05-14T07:10:19.851Z,5.20
2023-05-14T07:12:46.383Z,5.15
2023-05-14T07:15:12.844Z,5.03
2023-05-14T07:17:39.632Z,5.10
2023-05-14T07:20:06.902Z,4.93
2023-05-14T07:22:33.352Z,5.38
2023-05-14T07:24:59.937Z,5.47
2023-05-14T07:27:26.534Z,4.95
2023-05-14T07:29:53.061Z,5.75
2023-05-14T07:32:19.473Z,4.53
2023-05-14T07:34:46.299Z,5.78
2023-05-14T07:37:12.753Z,6.10
2023-05-14T07:39:41.547Z,5.90
2023-05-14T07:42:08.050Z,5.43
2023-05-14T07:44:34.577Z,5.97
2023-05-14T07:47:01.253Z,5.55
2023-05-14T07:49:27.778Z,5.45
2023-05-14T07:51:54.266Z,5.50
2023-05-14T07:54:20.824Z,5.80
2023-05-14T07:56:47.358Z,5.55
2023-05-14T07:59:13.853Z,5.63
2023-05-14T08:01:40.599Z,5.22
2023-05-14T08:04:07.164Z,5.68
2023-05-14T08:06:34.050Z,5.88
2023-05-14T08:09:00.716Z,6.10
2023-05-14T08:11:27.143Z,5.18
2023-05-14T08:13:53.610Z,5.60
2023-05-14T08:16:20.126Z,6.45
2023-05-14T08:18:48.136Z,5.95
2023-05-14T08:21:14.796Z,6.28
2023-05-14T08:23:41.312Z,6.53
2023-05-14T08:26:07.746Z,6.10
2023-05-14T08:28:34.195Z,6.40
2023-05-14T08:31:00.740Z,5.38
2023-05-14T08:33:27.316Z,5.50
2023-05-14T08:35:54.679Z,5.22
2023-05-14T08:38:21.124Z,5.43
2023-05-14T08:40:58.355Z,5.30
2023-05-14T08:43:29.745Z,5.72
2023-05-14T08:46:01.907Z,5.35
2023-05-14T08:48:32.890Z,5.07
2023-05-14T08:51:00.447Z,5.10
2023-05-14T08:53:27.235Z,4.85
2023-05-14T08:55:54.046Z,4.63
2023-05-14T08:58:20.692Z,4.85
2023-05-14T09:00:47.590Z,4.35
2023-05-14T09:03:14.979Z,4.72
2023-05-14T09:05:41.968Z,4.90
2023-05-14T09:08:08.418Z,4.65
2023-05-14T09:10:34.857Z,4.68
2023-05-14T09:13:01.436Z,4.75
2023-05-14T09:15:29.645Z,4.38
2023-05-14T09:17:58.612Z,4.85
2023-05-14T09:20:25.879Z,4.10
2023-05-14T09:22:54.283Z,4.57
2023-05-14T09:25:26.496Z,4.22
2023-05-14T09:27:56.113Z,4.15
2023-05-14T09:30:25.133Z,4.25
2023-05-14T09:32:54.498Z,4.53
2023-05-14T09:35:22.834Z,4.18
2023-05-14T09:37:51.792Z,4.18
2023-05-14T09:40:20.475Z,4.10
2023-05-14T09:42:50.936Z,4.30
2023-05-14T09:45:17.849Z,4.30
2023-05-14T09:47:45.013Z,4.35
2023-05-14T09:50:12.272Z,4.75
2023-05-14T09:52:39.106Z,4.40
2023-05-14T09:55:06.393Z,4.35
2023-05-14T09:57:33.606Z,3.83
2023-05-14T10:00:00.363Z,4.65
2023-05-14T10:02:41.164Z,4.00
2023-05-14T10:05:08.312Z,3.35
2023-05-14T10:07:41.639Z,3.85
2023-05-14T10:10:13.601Z,4.15
2023-05-14T10:12:40.619Z,3.95
2023-05-14T10:15:23.920Z,4.00
2023-05-14T10:17:56.605Z,4.03
2023-05-14T10:20:25.185Z,4.15
2023-05-14T10:22:52.173Z,4.18
2023-05-14T10:25:18.900Z,4.25
2023-05-14T10:27:45.588Z,4.32
2023-05-14T10:30:12.877Z,3.75
2023-05-14T10:32:41.716Z,4.55
2023-05-14T10:35:20.549Z,4.35
2023-05-14T10:37:47.244Z,3.92
2023-05-14T10:40:14.089Z,4.35
2023-05-14T10:42:43.195Z,3.92
2023-05-14T10:45:18.649Z,3.80
2023-05-14T10:47:47.233Z,4.38
2023-05-14T10:50:17.656Z,4.07
2023-05-14T10:52:45.712Z,4.63
2023-05-14T10:55:16.680Z,3.63
2023-05-14T10:57:45.325Z,4.80
2023-05-14T11:00:13.958Z,3.67
2023-05-14T11:02:42.809Z,4.30
2023-05-14T11:05:13.702Z,3.90
2023-05-14T11:07:42.168Z,4.38
2023-05-14T11:10:14.263Z,4.05
2023-05-14T11:12:46.093Z,4.68
2023-05-14T11:15:16.502Z,4.07
2023-05-14T11:17:45.262Z,3.72
2023-05-14T11:20:15.058Z,4.00
2023-05-14T11:22:42.960Z,4.07
2023-05-14T11:27:38.663Z,4.25
2023-05-14T11:30:11.843Z,4.10
2023-05-14T11:32:38.390Z,3.97
2023-05-14T11:35:05.868Z,3.90
2023-05-14T11:37:33.392Z,4.32
2023-05-14T11:40:01.699Z,4.22
2023-05-14T11:42:28.297Z,3.60
2023-05-14T11:44:54.877Z,3.83
2023-05-14T11:47:22.318Z,4.15
2023-05-14T11:49:49.410Z,3.80
2023-05-14T11:52:19.432Z,4.80
2023-05-14T11:54:46.617Z,4.35
2023-05-14T11:57:16.285Z,4.20
2023-05-14T11:59:42.971Z,4.47
2023-05-14T12:02:14.470Z,4.05
2023-05-14T12:04:42.322Z,4.70
2023-05-14T12:07:13.329Z,4.43
2023-05-14T12:09:50.886Z,3.80
2023-05-14T12:12:23.706Z,4.55
2023-05-14T12:14:51.009Z,4.38
2023-05-14T12:17:19.652Z,4.05
2023-05-14T12:19:48.542Z,3.90
2023-05-14T12:22:17.504Z,4.05
2023-05-14T12:24:53.401Z,4.55
2023-05-14T12:27:24.860Z,4.13
2023-05-14T12:30:09.110Z,4.10
2023-05-14T12:32:45.829Z,4.78
2023-05-14T12:35:12.507Z,4.55
2023-05-14T12:37:39.979Z,4.13
2023-05-14T12:40:09.417Z,3.67
2023-05-14T12:42:36.394Z,4.32
2023-05-14T12:45:05.482Z,3.72
2023-05-14T12:47:32.450Z,4.13
2023-05-14T12:49:58.920Z,4.50
2023-05-14T12:52:36.610Z,3.95
2023-05-14T12:55:05.532Z,4.40
2023-05-14T12:57:32.258Z,4.15
2023-05-14T12:59:58.946Z,4.10
2023-05-14T13:02:25.490Z,4.25
2023-05-14T13:04:51.897Z,4.43
2023-05-14T13:07:18.510Z,4.47
2023-05-14T13:09:45.011Z,4.10
2023-05-14T13:12:11.533Z,4.10
2023-05-14T13:14:38.022Z,3.78
2023-05-14T13:17:05.189Z,3.83
2023-05-14T13:19:32.472Z,4.32
2023-05-14T13:21:58.884Z,4.68
2023-05-14T13:24:25.462Z,4.70
2023-05-14T13:26:51.878Z,4.50
2023-05-14T13:29:18.375Z,3.72
2023-05-14T13:31:44.806Z,5.18
2023-05-14T13:34:11.285Z,3.55
2023-05-14T13:36:39.604Z,4.15
2023-05-14T13:39:07.126Z,4.30
2023-05-14T13:41:35.620Z,4.18
2023-05-14T13:44:02.062Z,4.22
2023-05-14T13:46:28.877Z,4.75
2023-05-14T13:48:55.426Z,4.05
2023-05-14T13:51:24.790Z,4.72
2023-05-14T13:53:51.219Z,4.22
2023-05-14T13:56:17.694Z,4.50
2023-05-14T13:58:44.171Z,4.00
2023-05-14T14:01:10.790Z,4.15
2023-05-14T14:03:37.272Z,4.15
2023-05-14T14:06:03.805Z,4.43
2023-05-14T14:08:31.079Z,3.75
2023-05-14T14:10:57.666Z,4.35
2023-05-14T14:13:24.432Z,3.60
2023-05-14T14:15:51.423Z,4.10
2023-05-14T14:18:17.953Z,3.60
2023-05-14T14:20:44.429Z,4.15
2023-05-14T14:23:10.914Z,3.90
2023-05-14T14:25:37.339Z,3.90
2023-05-14T14:28:03.943Z,3.47
2023-05-14T14:30:30.396Z,4.00
2023-05-14T14:32:56.972Z,3.58
2023-05-14T14:35:25.052Z,3.70
2023-05-14T14:40:20.163Z,3.97
2023-05-14T14:42:47.948Z,3.85
2023-05-14T14:45:14.455Z,4.10
2023-05-14T14:47:46.220Z,4.00
2023-05-14T14:50:13.642Z,3.47
2023-05-14T14:52:45.444Z,4.10
2023-05-14T14:55:12.574Z,3.90
2023-05-14T14:57:39.108Z,3.92
2023-05-14T15:00:06.865Z,4.07
2023-05-14T15:02:33.427Z,3.83
2023-05-14T15:05:00.151Z,3.72
2023-05-14T15:07:26.637Z,3.50
2023-05-14T15:09:53.052Z,4.00
2023-05-14T15:12:19.574Z,3.72
2023-05-14T15:14:46.014Z,4.32
2023-05-14T15:17:12.426Z,3.35
2023-05-14T15:19:38.879Z,4.47
2023-05-14T15:22:05.412Z,3.78
2023-05-14T15:24:31.940Z,3.80
2023-05-14T15:27:00.067Z,3.90
2023-05-14T15:29:26.646Z,3.83
2023-05-14T15:31:53.205Z,4.40
2023-05-14T15:34:20.768Z,3.78
2023-05-14T15:36:47.315Z,3.53
2023-05-14T15:39:13.794Z,3.83
2023-05-14T15:41:40.485Z,4.00
2023-05-14T15:44:07.311Z,3.80
2023-05-14T15:46:33.861Z,3.75
2023-05-14T15:49:00.337Z,3.80
2023-05-14T15:51:26.832Z,3.60
2023-05-14T15:53:55.066Z,4.07
2023-05-14T15:58:55.813Z,3.90
2023-05-14T16:01:22.382Z,4.75
2023-05-14T16:03:49.000Z,4.93
2023-05-14T16:06:16.020Z,3.78
2023-05-14T16:08:42.414Z,4.13
2023-05-14T16:11:10.521Z,4.13
2023-05-14T16:13:38.375Z,4.03
2023-05-14T16:16:05.229Z,4.28
2023-05-14T16:18:31.696Z,4.82
2023-05-14T16:20:58.254Z,3.92
2023-05-14T16:23:24.772Z,4.13
2023-05-14T16:25:51.314Z,4.03
2023-05-14T16:28:17.799Z,4.50
2023-05-14T16:30:44.288Z,4.30
2023-05-14T16:33:10.726Z,4.68
2023-05-14T16:35:37.350Z,4.38
2023-05-14T16:38:04.072Z,4.32
2023-05-14T16:40:30.622Z,4.50
2023-05-14T16:42:57.113Z,4.70
2023-05-14T16:45:24.032Z,4.25
2023-05-14T16:47:50.738Z,3.70
2023-05-14T16:50:17.294Z,3.63
2023-05-14T16:52:43.737Z,4.20
2023-05-14T16:55:10.648Z,4.20
2023-05-14T16:57:37.313Z,4.38
2023-05-14T17:00:06.043Z,4.47
2023-05-14T17:02:33.332Z,4.22
2023-05-14T17:05:01.418Z,4.07
2023-05-14T17:07:28.076Z,4.03
2023-05-14T17:09:54.685Z,4.20
2023-05-14T17:12:21.347Z,4.13
2023-05-14T17:14:50.318Z,4.30
2023-05-14T17:17:16.937Z,4.47
2023-05-14T17:19:43.715Z,6.25
2023-05-14T17:22:11.537Z,5.15
2023-05-14T17:24:39.041Z,5.72
2023-05-14T17:27:06.208Z,5.47
2023-05-14T17:29:32.713Z,5.82
2023-05-14T17:31:59.375Z,6.13
2023-05-14T17:34:25.894Z,6.35
2023-05-14T17:36:52.364Z,6.13
2023-05-14T17:39:18.777Z,6.30
2023-05-14T17:41:45.275Z,6.13
2023-05-14T17:44:13.038Z,5.63
2023-05-14T17:46:41.789Z,5.93
2023-05-14T17:51:34.799Z,5.45
2023-05-14T17:54:01.213Z,6.03
2023-05-14T17:56:27.870Z,5.47
2023-05-14T17:58:54.406Z,5.75
2023-05-14T18:01:20.965Z,5.68
2023-05-14T18:03:47.545Z,5.28
2023-05-14T18:06:14.942Z,5.43
2023-05-14T18:08:41.720Z,5.68
2023-05-14T18:11:08.214Z,5.35
2023-05-14T18:13:34.846Z,5.78
2023-05-14T18:16:01.482Z,5.85
2023-05-14T18:18:28.041Z,5.30
2023-05-14T18:20:54.596Z,5.35
2023-05-14T18:23:21.188Z,5.18
2023-05-14T18:25:48.130Z,4.95
2023-05-14T18:28:15.335Z,5.20
2023-05-14T18:30:43.410Z,5.65
2023-05-14T18:33:10.219Z,4.85
2023-05-14T18:35:37.063Z,5.15
2023-05-14T18:38:03.603Z,5.40
2023-05-14T18:40:30.111Z,4.90
2023-05-14T18:42:59.018Z,4.68
2023-05-14T18:45:25.876Z,4.78
2023-05-14T18:47:52.724Z,4.28
2023-05-14T18:50:19.404Z,4.85
2023-05-14T18:52:45.970Z,5.30
2023-05-14T18:55:12.462Z,5.05
2023-05-14T18:57:38.919Z,5.13
2023-05-14T19:00:06.194Z,4.60
2023-05-14T19:02:32.753Z,4.85
2023-05-14T19:04:59.262Z,5.07
2023-05-14T19:07:27.166Z,4.55
2023-05-14T19:09:53.654Z,5.55
2023-05-14T19:12:20.141Z,5.00
2023-05-14T19:14:46.545Z,4.95
2023-05-14T19:17:13.060Z,5.50
2023-05-14T19:19:39.673Z,5.07
2023-05-14T19:22:06.629Z,5.57
2023-05-14T19:24:33.141Z,5.72
2023-05-14T19:26:59.733Z,5.57
2023-05-14T19:29:26.275Z,5.45
2023-05-14T19:31:52.786Z,5.88
2023-05-14T19:34:19.238Z,5.13
2023-05-14T19:36:45.835Z,4.78
2023-05-14T19:39:12.257Z,4.82
2023-05-14T19:41:38.859Z,4.80
2023-05-14T19:44:05.415Z,4.95
2023-05-14T19:46:31.972Z,4.60
2023-05-14T19:48:58.479Z,5.35
2023-05-14T19:51:25.430Z,5.05
2023-05-14T19:53:54.040Z,5.10
2023-05-14T19:56:21.557Z,5.82
2023-05-14T19:58:48.055Z,5.03
2023-05-14T20:01:15.025Z,5.28
2023-05-14T20:03:41.854Z,5.75
2023-05-14T20:06:08.418Z,6.07
2023-05-14T20:08:34.868Z,5.53
2023-05-14T20:11:01.541Z,5.65
2023-05-14T20:13:28.039Z,5.78
2023-05-14T20:15:55.070Z,5.40
2023-05-14T20:18:21.774Z,5.78
2023-05-14T20:20:49.047Z,5.68
2023-05-14T20:23:15.891Z,5.88
2023-05-14T20:25:43.055Z,5.80
2023-05-14T20:28:10.134Z,6.20
2023-05-14T20:30:36.656Z,5.75
2023-05-14T20:33:06.689Z,5.95
2023-05-14T20:35:33.238Z,5.55
2023-05-14T20:38:00.160Z,5.63
2023-05-14T20:40:26.630Z,6.05
2023-05-14T20:42:53.204Z,6.03
2023-05-14T20:45:19.752Z,6.65
2023-05-14T20:47:46.567Z,5.47
2023-05-14T20:50:13.775Z,5.68
2023-05-14T20:52:40.687Z,5.90
2023-05-14T20:55:07.645Z,6.30
2023-05-14T20:57:34.242Z,5.75
2023-05-14T21:00:01.532Z,5.88
2023-05-14T21:02:27.984Z,6.10
2023-05-14T21:04:54.728Z,5.88
2023-05-14T21:07:21.236Z,5.93
2023-05-14T21:09:52.147Z,6.10
2023-05-14T21:12:19.300Z,6.13
2023-05-14T21:14:45.792Z,6.35
2023-05-14T21:17:12.526Z,6.65
2023-05-14T21:19:39.083Z,6.20
2023-05-14T21:22:06.463Z,5.63
2023-05-14T21:24:32.959Z,6.38
2023-05-14T21:26:59.419Z,5.82
2023-05-14T21:29:25.985Z,6.05
2023-05-14T21:31:52.597Z,6.10
2023-05-14T21:34:19.048Z,6.15
2023-05-14T21:36:45.566Z,5.65
2023-05-14T21:39:12.036Z,6.15
2023-05-14T21:41:38.512Z,5.80
2023-05-14T21:44:04.971Z,5.97
2023-05-14T21:46:31.958Z,6.28
2023-05-14T21:48:58.475Z,6.07
2023-05-14T21:51:24.954Z,5.90
2023-05-14T21:53:51.329Z,6.32
2023-05-14T21:56:17.789Z,6.28
2023-05-14T21:58:44.489Z,6.10
2023-05-14T22:01:11.598Z,5.80
2023-05-14T22:03:38.515Z,6.03
2023-05-14T22:06:05.521Z,6.30
2023-05-14T22:08:32.263Z,6.63
2023-05-14T22:10:58.750Z,6.00
2023-05-14T22:13:25.275Z,6.30
2023-05-14T22:16:01.178Z,6.82
2023-05-14T22:18:36.505Z,6.65
2023-05-14T22:21:03.333Z,6.55
2023-05-14T22:23:29.989Z,7.00
2023-05-14T22:25:56.926Z,6.50
2023-05-14T22:28:23.562Z,7.03
2023-05-14T22:30:50.158Z,7.05
2023-05-14T22:33:16.618Z,7.00
2023-05-14T22:35:43.083Z,6.53
2023-05-14T22:38:09.494Z,7.13
2023-05-14T22:40:36.429Z,7.55
2023-05-14T22:43:02.903Z,6.38
2023-05-14T22:45:29.418Z,6.65
2023-05-14T22:47:55.878Z,6.30
2023-05-14T22:50:22.477Z,6.70
2023-05-14T22:52:48.884Z,6.53
2023-05-14T22:55:15.465Z,6.38
2023-05-14T22:57:41.948Z,7.20
2023-05-14T23:00:09.001Z,7.63
2023-05-14T23:02:35.711Z,7.82
2023-05-14T23:05:02.216Z,7.60
2023-05-14T23:07:28.796Z,8.07
2023-05-14T23:09:55.262Z,7.72
2023-05-14T23:12:21.744Z,7.65
2023-05-14T23:14:48.212Z,7.50
2023-05-14T23:17:14.744Z,7.65
2023-05-14T23:19:41.307Z,7.88
2023-05-14T23:22:07.799Z,7.20
2023-05-14T23:24:34.352Z,7.63
2023-05-14T23:27:00.787Z,7.68
2023-05-14T23:29:27.262Z,8.27
2023-05-14T23:31:53.829Z,8.30
2023-05-14T23:34:21.990Z,8.32
2023-05-14T23:36:48.590Z,8.82
2023-05-14T23:39:16.203Z,8.27
2023-05-14T23:41:42.698Z,8.75
2023-05-14T23:44:09.098Z,8.20
2023-05-14T23:46:35.682Z,8.27
2023-05-14T23:49:02.151Z,7.93
2023-05-14T23:51:28.580Z,8.00
2023-05-14T23:54:00.150Z,8.60
2023-05-14T23:56:30.318Z,8.35
2023-05-14T23:58:56.877Z,7.78
